sensor_id;sensor_type;location;lat;lon;timestamp;P1;durP1;ratioP1;P2;durP2;ratioP2
19812;SDS011;10066;48.108;11.448;2022-08-19T00:01:53;9.80;;;8.70;;
19812;SDS011;10066;48.108;11.448;2022-08-19T00:04:23;10.53;;;8.70;;
19812;SDS011;10066;48.108;11.448;2022-08-19T00:06:52;10.47;;;8.40;;
19812;SDS011;10066;48.108;11.448;2022-08-19T00:09:20;10.00;;;8.03;;
19812;SDS011;10066;48.108;11.448;2022-08-19T00:11:49;10.60;;;8.60;;
19812;SDS011;10066;48.108;11.448;2022-08-19T00:14:18;9.07;;;7.87;;
19812;SDS011;10066;48.108;11.448;2022-08-19T00:16:47;9.00;;;7.80;;
19812;SDS011;10066;48.108;11.448;2022-08-19T00:19:16;8.77;;;7.67;;
19812;SDS011;10066;48.108;11.448;2022-08-19T00:21:43;7.87;;;7.07;;
19812;SDS011;10066;48.108;11.448;2022-08-19T00:24:11;7.20;;;6.50;;
19812;SDS011;10066;48.108;11.448;2022-08-19T00:26:40;9.80;;;7.70;;
19812;SDS011;10066;48.108;11.448;2022-08-19T00:29:11;9.87;;;7.63;;
19812;SDS011;10066;48.108;11.448;2022-08-19T00:31:39;7.13;;;6.20;;
19812;SDS011;10066;48.108;11.448;2022-08-19T00:34:07;8.00;;;7.20;;
19812;SDS011;10066;48.108;11.448;2022-08-19T00:36:35;8.13;;;6.60;;
19812;SDS011;10066;48.108;11.448;2022-08-19T00:39:02;7.80;;;6.53;;
19812;SDS011;10066;48.108;11.448;2022-08-19T00:41:30;7.87;;;7.10;;
19812;SDS011;10066;48.108;11.448;2022-08-19T00:43:58;7.93;;;7.13;;
19812;SDS011;10066;48.108;11.448;2022-08-19T00:46:29;7.17;;;6.47;;
19812;SDS011;10066;48.108;11.448;2022-08-19T00:48:57;7.93;;;6.37;;
19812;SDS011;10066;48.108;11.448;2022-08-19T00:51:25;7.93;;;6.83;;
19812;SDS011;10066;48.108;11.448;2022-08-19T00:53:57;7.60;;;6.80;;
19812;SDS011;10066;48.108;11.448;2022-08-19T00:56:27;8.07;;;7.27;;
19812;SDS011;10066;48.108;11.448;2022-08-19T00:58:55;8.27;;;7.47;;
19812;SDS011;10066;48.108;11.448;2022-08-19T01:01:24;7.70;;;7.00;;
19812;SDS011;10066;48.108;11.448;2022-08-19T01:03:53;8.93;;;7.63;;
19812;SDS011;10066;48.108;11.448;2022-08-19T01:06:20;9.20;;;8.00;;
19812;SDS011;10066;48.108;11.448;2022-08-19T01:08:48;8.57;;;7.60;;
19812;SDS011;10066;48.108;11.448;2022-08-19T01:11:15;8.53;;;7.70;;
19812;SDS011;10066;48.108;11.448;2022-08-19T01:13:42;8.40;;;7.60;;
19812;SDS011;10066;48.108;11.448;2022-08-19T01:16:11;11.23;;;9.17;;
19812;SDS011;10066;48.108;11.448;2022-08-19T01:18:41;8.93;;;8.03;;
19812;SDS011;10066;48.108;11.448;2022-08-19T01:21:12;11.47;;;9.13;;
19812;SDS011;10066;48.108;11.448;2022-08-19T01:23:48;10.07;;;9.00;;
19812;SDS011;10066;48.108;11.448;2022-08-19T01:26:16;10.13;;;8.83;;
19812;SDS011;10066;48.108;11.448;2022-08-19T01:28:47;12.10;;;9.37;;
19812;SDS011;10066;48.108;11.448;2022-08-19T01:31:17;9.63;;;8.70;;
19812;SDS011;10066;48.108;11.448;2022-08-19T01:33:47;11.23;;;9.53;;
19812;SDS011;10066;48.108;11.448;2022-08-19T01:36:15;11.57;;;9.07;;
19812;SDS011;10066;48.108;11.448;2022-08-19T01:38:50;10.33;;;7.83;;
19812;SDS011;10066;48.108;11.448;2022-08-19T01:41:17;9.67;;;8.73;;
19812;SDS011;10066;48.108;11.448;2022-08-19T01:43:45;10.37;;;9.37;;
19812;SDS011;10066;48.108;11.448;2022-08-19T01:46:13;10.77;;;8.53;;
19812;SDS011;10066;48.108;11.448;2022-08-19T01:48:40;11.43;;;9.00;;
19812;SDS011;10066;48.108;11.448;2022-08-19T01:51:09;8.40;;;7.50;;
19812;SDS011;10066;48.108;11.448;2022-08-19T01:53:37;8.60;;;7.80;;
19812;SDS011;10066;48.108;11.448;2022-08-19T01:56:06;8.43;;;7.57;;
19812;SDS011;10066;48.108;11.448;2022-08-19T01:58:34;8.87;;;7.97;;
19812;SDS011;10066;48.108;11.448;2022-08-19T02:01:05;9.20;;;8.27;;
19812;SDS011;10066;48.108;11.448;2022-08-19T02:03:50;8.70;;;7.80;;
19812;SDS011;10066;48.108;11.448;2022-08-19T02:06:19;10.10;;;7.67;;
19812;SDS011;10066;48.108;11.448;2022-08-19T02:08:46;7.50;;;6.80;;
19812;SDS011;10066;48.108;11.448;2022-08-19T02:11:19;7.13;;;6.47;;
19812;SDS011;10066;48.108;11.448;2022-08-19T02:13:47;6.60;;;6.00;;
19812;SDS011;10066;48.108;11.448;2022-08-19T02:16:15;8.53;;;7.60;;
19812;SDS011;10066;48.108;11.448;2022-08-19T02:18:43;7.77;;;6.80;;
19812;SDS011;10066;48.108;11.448;2022-08-19T02:21:12;8.07;;;7.27;;
19812;SDS011;10066;48.108;11.448;2022-08-19T02:23:39;8.53;;;6.47;;
19812;SDS011;10066;48.108;11.448;2022-08-19T02:26:06;6.93;;;6.27;;
19812;SDS011;10066;48.108;11.448;2022-08-19T02:28:35;7.80;;;6.80;;
19812;SDS011;10066;48.108;11.448;2022-08-19T02:31:02;7.43;;;6.63;;
19812;SDS011;10066;48.108;11.448;2022-08-19T02:33:30;8.30;;;7.10;;
19812;SDS011;10066;48.108;11.448;2022-08-19T02:35:57;7.10;;;6.40;;
19812;SDS011;10066;48.108;11.448;2022-08-19T02:38:24;6.90;;;6.20;;
19812;SDS011;10066;48.108;11.448;2022-08-19T02:40:52;7.57;;;6.20;;
19812;SDS011;10066;48.108;11.448;2022-08-19T02:43:20;7.67;;;6.50;;
19812;SDS011;10066;48.108;11.448;2022-08-19T02:45:50;5.30;;;4.80;;
19812;SDS011;10066;48.108;11.448;2022-08-19T02:48:17;6.23;;;5.63;;
19812;SDS011;10066;48.108;11.448;2022-08-19T02:50:46;6.87;;;6.17;;
19812;SDS011;10066;48.108;11.448;2022-08-19T02:53:13;5.80;;;5.30;;
19812;SDS011;10066;48.108;11.448;2022-08-19T02:55:44;5.67;;;5.17;;
19812;SDS011;10066;48.108;11.448;2022-08-19T02:58:13;6.37;;;5.77;;
19812;SDS011;10066;48.108;11.448;2022-08-19T03:00:42;6.57;;;5.87;;
19812;SDS011;10066;48.108;11.448;2022-08-19T03:03:11;6.30;;;5.70;;
19812;SDS011;10066;48.108;11.448;2022-08-19T03:05:39;11.70;;;5.73;;
19812;SDS011;10066;48.108;11.448;2022-08-19T03:08:06;7.03;;;6.33;;
19812;SDS011;10066;48.108;11.448;2022-08-19T03:10:39;7.30;;;6.17;;
19812;SDS011;10066;48.108;11.448;2022-08-19T03:13:09;6.57;;;5.67;;
19812;SDS011;10066;48.108;11.448;2022-08-19T03:15:38;7.07;;;6.13;;
19812;SDS011;10066;48.108;11.448;2022-08-19T03:18:06;6.43;;;5.83;;
19812;SDS011;10066;48.108;11.448;2022-08-19T03:20:35;6.57;;;5.97;;
19812;SDS011;10066;48.108;11.448;2022-08-19T03:23:07;9.00;;;5.40;;
19812;SDS011;10066;48.108;11.448;2022-08-19T03:25:36;6.23;;;5.63;;
19812;SDS011;10066;48.108;11.448;2022-08-19T03:28:06;7.57;;;6.07;;
19812;SDS011;10066;48.108;11.448;2022-08-19T03:30:33;6.23;;;5.47;;
19812;SDS011;10066;48.108;11.448;2022-08-19T03:33:01;6.97;;;6.27;;
19812;SDS011;10066;48.108;11.448;2022-08-19T03:35:28;5.83;;;5.23;;
19812;SDS011;10066;48.108;11.448;2022-08-19T03:37:57;8.07;;;6.17;;
19812;SDS011;10066;48.108;11.448;2022-08-19T03:40:25;5.90;;;5.30;;
19812;SDS011;10066;48.108;11.448;2022-08-19T03:42:52;6.07;;;5.07;;
19812;SDS011;10066;48.108;11.448;2022-08-19T03:45:19;6.70;;;5.90;;
19812;SDS011;10066;48.108;11.448;2022-08-19T03:47:46;5.83;;;5.30;;
19812;SDS011;10066;48.108;11.448;2022-08-19T03:50:13;5.73;;;5.20;;
19812;SDS011;10066;48.108;11.448;2022-08-19T03:52:40;6.10;;;5.47;;
19812;SDS011;10066;48.108;11.448;2022-08-19T03:55:09;5.67;;;5.07;;
19812;SDS011;10066;48.108;11.448;2022-08-19T03:57:37;5.63;;;5.13;;
19812;SDS011;10066;48.108;11.448;2022-08-19T04:00:04;5.87;;;5.27;;
19812;SDS011;10066;48.108;11.448;2022-08-19T04:02:32;6.73;;;5.00;;
19812;SDS011;10066;48.108;11.448;2022-08-19T04:05:00;6.70;;;5.53;;
19812;SDS011;10066;48.108;11.448;2022-08-19T04:07:26;5.33;;;4.80;;
19812;SDS011;10066;48.108;11.448;2022-08-19T04:09:53;5.97;;;5.00;;
19812;SDS011;10066;48.108;11.448;2022-08-19T04:12:22;5.87;;;5.00;;
19812;SDS011;10066;48.108;11.448;2022-08-19T04:14:49;5.63;;;4.97;;
19812;SDS011;10066;48.108;11.448;2022-08-19T04:17:16;6.50;;;5.37;;
19812;SDS011;10066;48.108;11.448;2022-08-19T04:19:43;5.97;;;5.27;;
19812;SDS011;10066;48.108;11.448;2022-08-19T04:22:10;5.33;;;4.83;;
19812;SDS011;10066;48.108;11.448;2022-08-19T04:24:37;4.70;;;4.30;;
19812;SDS011;10066;48.108;11.448;2022-08-19T04:27:04;6.43;;;5.07;;
19812;SDS011;10066;48.108;11.448;2022-08-19T04:29:33;6.00;;;5.10;;
19812;SDS011;10066;48.108;11.448;2022-08-19T04:32:04;6.60;;;6.00;;
19812;SDS011;10066;48.108;11.448;2022-08-19T04:34:31;6.90;;;5.73;;
19812;SDS011;10066;48.108;11.448;2022-08-19T04:36:58;7.07;;;6.10;;
19812;SDS011;10066;48.108;11.448;2022-08-19T04:39:26;7.90;;;6.40;;
19812;SDS011;10066;48.108;11.448;2022-08-19T04:42:08;7.50;;;6.70;;
19812;SDS011;10066;48.108;11.448;2022-08-19T04:44:54;6.63;;;5.93;;
19812;SDS011;10066;48.108;11.448;2022-08-19T04:47:22;7.50;;;6.73;;
19812;SDS011;10066;48.108;11.448;2022-08-19T04:49:49;7.40;;;6.63;;
19812;SDS011;10066;48.108;11.448;2022-08-19T04:52:16;8.43;;;6.50;;
19812;SDS011;10066;48.108;11.448;2022-08-19T04:54:43;6.30;;;5.70;;
19812;SDS011;10066;48.108;11.448;2022-08-19T04:57:10;6.80;;;5.50;;
19812;SDS011;10066;48.108;11.448;2022-08-19T04:59:37;6.73;;;6.03;;
19812;SDS011;10066;48.108;11.448;2022-08-19T05:02:07;7.17;;;6.43;;
19812;SDS011;10066;48.108;11.448;2022-08-19T05:04:35;8.67;;;5.63;;
19812;SDS011;10066;48.108;11.448;2022-08-19T05:07:04;7.33;;;5.50;;
19812;SDS011;10066;48.108;11.448;2022-08-19T05:09:31;8.43;;;6.10;;
19812;SDS011;10066;48.108;11.448;2022-08-19T05:11:58;6.93;;;6.07;;
19812;SDS011;10066;48.108;11.448;2022-08-19T05:14:26;5.93;;;5.33;;
19812;SDS011;10066;48.108;11.448;2022-08-19T05:16:54;5.33;;;4.83;;
19812;SDS011;10066;48.108;11.448;2022-08-19T05:19:22;6.70;;;4.70;;
19812;SDS011;10066;48.108;11.448;2022-08-19T05:22:06;5.30;;;4.80;;
19812;SDS011;10066;48.108;11.448;2022-08-19T05:24:51;6.00;;;5.13;;
19812;SDS011;10066;48.108;11.448;2022-08-19T05:27:17;5.80;;;5.07;;
19812;SDS011;10066;48.108;11.448;2022-08-19T05:29:44;6.63;;;4.73;;
19812;SDS011;10066;48.108;11.448;2022-08-19T05:32:12;5.30;;;4.80;;
19812;SDS011;10066;48.108;11.448;2022-08-19T05:34:40;5.50;;;5.00;;
19812;SDS011;10066;48.108;11.448;2022-08-19T05:37:07;5.57;;;4.93;;
19812;SDS011;10066;48.108;11.448;2022-08-19T05:39:36;6.30;;;5.70;;
19812;SDS011;10066;48.108;11.448;2022-08-19T05:42:06;6.13;;;5.53;;
19812;SDS011;10066;48.108;11.448;2022-08-19T05:44:35;5.90;;;5.40;;
19812;SDS011;10066;48.108;11.448;2022-08-19T05:47:04;5.53;;;5.03;;
19812;SDS011;10066;48.108;11.448;2022-08-19T05:49:33;6.20;;;5.40;;
19812;SDS011;10066;48.108;11.448;2022-08-19T05:52:03;8.33;;;5.77;;
19812;SDS011;10066;48.108;11.448;2022-08-19T05:54:32;5.63;;;5.00;;
19812;SDS011;10066;48.108;11.448;2022-08-19T05:56:59;7.13;;;5.37;;
19812;SDS011;10066;48.108;11.448;2022-08-19T05:59:27;8.13;;;5.33;;
19812;SDS011;10066;48.108;11.448;2022-08-19T06:01:54;9.03;;;6.10;;
19812;SDS011;10066;48.108;11.448;2022-08-19T06:04:22;6.33;;;5.73;;
19812;SDS011;10066;48.108;11.448;2022-08-19T06:06:51;9.07;;;6.17;;
19812;SDS011;10066;48.108;11.448;2022-08-19T06:09:21;6.70;;;5.83;;
19812;SDS011;10066;48.108;11.448;2022-08-19T06:11:49;7.03;;;5.20;;
19812;SDS011;10066;48.108;11.448;2022-08-19T06:14:19;6.77;;;5.30;;
19812;SDS011;10066;48.108;11.448;2022-08-19T06:16:48;6.23;;;5.63;;
19812;SDS011;10066;48.108;11.448;2022-08-19T06:19:17;8.43;;;7.47;;
19812;SDS011;10066;48.108;11.448;2022-08-19T06:21:46;7.67;;;6.80;;
19812;SDS011;10066;48.108;11.448;2022-08-19T06:24:15;8.80;;;7.90;;
19812;SDS011;10066;48.108;11.448;2022-08-19T06:26:46;9.80;;;7.67;;
19812;SDS011;10066;48.108;11.448;2022-08-19T06:29:15;8.30;;;7.30;;
19812;SDS011;10066;48.108;11.448;2022-08-19T06:31:45;9.27;;;7.60;;
19812;SDS011;10066;48.108;11.448;2022-08-19T06:34:17;8.63;;;7.23;;
19812;SDS011;10066;48.108;11.448;2022-08-19T06:36:46;12.47;;;8.53;;
19812;SDS011;10066;48.108;11.448;2022-08-19T06:39:20;9.93;;;8.73;;
19812;SDS011;10066;48.108;11.448;2022-08-19T06:41:51;10.37;;;9.27;;
19812;SDS011;10066;48.108;11.448;2022-08-19T06:44:20;11.17;;;9.77;;
19812;SDS011;10066;48.108;11.448;2022-08-19T06:46:50;13.77;;;10.53;;
19812;SDS011;10066;48.108;11.448;2022-08-19T06:49:21;13.10;;;10.97;;
19812;SDS011;10066;48.108;11.448;2022-08-19T06:51:49;13.40;;;10.80;;
19812;SDS011;10066;48.108;11.448;2022-08-19T06:54:16;11.37;;;10.30;;
19812;SDS011;10066;48.108;11.448;2022-08-19T06:56:44;12.67;;;11.37;;
19812;SDS011;10066;48.108;11.448;2022-08-19T06:59:13;11.07;;;10.00;;
19812;SDS011;10066;48.108;11.448;2022-08-19T07:01:43;11.80;;;10.50;;
19812;SDS011;10066;48.108;11.448;2022-08-19T07:04:13;13.23;;;10.90;;
19812;SDS011;10066;48.108;11.448;2022-08-19T07:06:42;12.77;;;11.40;;
19812;SDS011;10066;48.108;11.448;2022-08-19T07:09:11;12.07;;;10.63;;
19812;SDS011;10066;48.108;11.448;2022-08-19T07:11:43;13.77;;;11.77;;
19812;SDS011;10066;48.108;11.448;2022-08-19T07:14:10;15.17;;;12.63;;
19812;SDS011;10066;48.108;11.448;2022-08-19T07:16:38;13.43;;;11.97;;
19812;SDS011;10066;48.108;11.448;2022-08-19T07:19:06;15.13;;;13.17;;
19812;SDS011;10066;48.108;11.448;2022-08-19T07:21:33;17.63;;;13.90;;
19812;SDS011;10066;48.108;11.448;2022-08-19T07:24:02;15.07;;;13.47;;
19812;SDS011;10066;48.108;11.448;2022-08-19T07:26:30;14.67;;;12.87;;
19812;SDS011;10066;48.108;11.448;2022-08-19T07:28:59;14.53;;;12.43;;
19812;SDS011;10066;48.108;11.448;2022-08-19T07:31:26;15.73;;;13.20;;
19812;SDS011;10066;48.108;11.448;2022-08-19T07:33:56;14.63;;;13.13;;
19812;SDS011;10066;48.108;11.448;2022-08-19T07:36:24;15.77;;;13.63;;
19812;SDS011;10066;48.108;11.448;2022-08-19T07:38:54;15.60;;;13.27;;
19812;SDS011;10066;48.108;11.448;2022-08-19T07:41:22;14.70;;;12.83;;
19812;SDS011;10066;48.108;11.448;2022-08-19T07:43:51;15.07;;;13.57;;
19812;SDS011;10066;48.108;11.448;2022-08-19T07:46:19;14.63;;;13.17;;
19812;SDS011;10066;48.108;11.448;2022-08-19T07:48:47;14.90;;;13.13;;
19812;SDS011;10066;48.108;11.448;2022-08-19T07:51:18;17.13;;;13.73;;
19812;SDS011;10066;48.108;11.448;2022-08-19T07:53:47;15.00;;;13.27;;
19812;SDS011;10066;48.108;11.448;2022-08-19T07:56:16;16.20;;;13.80;;
19812;SDS011;10066;48.108;11.448;2022-08-19T07:58:45;16.23;;;13.27;;
19812;SDS011;10066;48.108;11.448;2022-08-19T08:01:15;15.33;;;13.73;;
19812;SDS011;10066;48.108;11.448;2022-08-19T08:03:45;18.67;;;14.00;;
19812;SDS011;10066;48.108;11.448;2022-08-19T08:06:32;16.50;;;13.53;;
19812;SDS011;10066;48.108;11.448;2022-08-19T08:09:20;14.80;;;13.30;;
19812;SDS011;10066;48.108;11.448;2022-08-19T08:11:50;14.20;;;12.70;;
19812;SDS011;10066;48.108;11.448;2022-08-19T08:14:19;16.67;;;13.40;;
19812;SDS011;10066;48.108;11.448;2022-08-19T08:16:49;13.90;;;12.50;;
19812;SDS011;10066;48.108;11.448;2022-08-19T08:19:17;15.37;;;13.53;;
19812;SDS011;10066;48.108;11.448;2022-08-19T08:21:47;15.37;;;13.73;;
19812;SDS011;10066;48.108;11.448;2022-08-19T08:24:15;15.77;;;14.17;;
19812;SDS011;10066;48.108;11.448;2022-08-19T08:26:43;17.50;;;15.50;;
19812;SDS011;10066;48.108;11.448;2022-08-19T08:29:11;18.23;;;15.37;;
19812;SDS011;10066;48.108;11.448;2022-08-19T08:31:40;16.53;;;14.70;;
19812;SDS011;10066;48.108;11.448;2022-08-19T08:34:10;22.27;;;15.07;;
19812;SDS011;10066;48.108;11.448;2022-08-19T08:36:37;17.43;;;14.33;;
19812;SDS011;10066;48.108;11.448;2022-08-19T08:39:08;16.03;;;14.33;;
19812;SDS011;10066;48.108;11.448;2022-08-19T08:41:37;17.17;;;14.90;;
19812;SDS011;10066;48.108;11.448;2022-08-19T08:44:13;16.57;;;13.90;;
19812;SDS011;10066;48.108;11.448;2022-08-19T08:46:45;18.10;;;15.60;;
19812;SDS011;10066;48.108;11.448;2022-08-19T08:49:18;17.63;;;15.00;;
19812;SDS011;10066;48.108;11.448;2022-08-19T08:51:54;19.00;;;14.67;;
19812;SDS011;10066;48.108;11.448;2022-08-19T08:54:30;18.87;;;15.50;;
19812;SDS011;10066;48.108;11.448;2022-08-19T08:57:02;17.00;;;14.60;;
19812;SDS011;10066;48.108;11.448;2022-08-19T08:59:34;15.77;;;14.03;;
19812;SDS011;10066;48.108;11.448;2022-08-19T09:02:03;16.17;;;14.47;;
19812;SDS011;10066;48.108;11.448;2022-08-19T09:04:30;16.57;;;14.77;;
19812;SDS011;10066;48.108;11.448;2022-08-19T09:07:00;15.60;;;13.97;;
19812;SDS011;10066;48.108;11.448;2022-08-19T09:09:43;16.43;;;14.50;;
19812;SDS011;10066;48.108;11.448;2022-08-19T09:12:14;16.13;;;14.07;;
19812;SDS011;10066;48.108;11.448;2022-08-19T09:14:51;16.53;;;14.63;;
19812;SDS011;10066;48.108;11.448;2022-08-19T09:17:22;17.20;;;14.63;;
19812;SDS011;10066;48.108;11.448;2022-08-19T09:19:56;17.10;;;14.60;;
19812;SDS011;10066;48.108;11.448;2022-08-19T09:22:25;17.93;;;14.07;;
19812;SDS011;10066;48.108;11.448;2022-08-19T09:24:54;16.37;;;14.67;;
19812;SDS011;10066;48.108;11.448;2022-08-19T09:27:22;16.67;;;14.10;;
19812;SDS011;10066;48.108;11.448;2022-08-19T09:29:51;17.30;;;15.37;;
19812;SDS011;10066;48.108;11.448;2022-08-19T09:32:19;16.80;;;15.00;;
19812;SDS011;10066;48.108;11.448;2022-08-19T09:34:46;18.10;;;15.20;;
19812;SDS011;10066;48.108;11.448;2022-08-19T09:37:13;16.57;;;14.67;;
19812;SDS011;10066;48.108;11.448;2022-08-19T09:39:41;17.67;;;15.57;;
19812;SDS011;10066;48.108;11.448;2022-08-19T09:42:10;18.43;;;14.83;;
19812;SDS011;10066;48.108;11.448;2022-08-19T09:44:38;17.13;;;14.13;;
19812;SDS011;10066;48.108;11.448;2022-08-19T09:47:06;15.67;;;14.07;;
19812;SDS011;10066;48.108;11.448;2022-08-19T09:49:34;15.33;;;13.73;;
19812;SDS011;10066;48.108;11.448;2022-08-19T09:52:02;16.30;;;13.10;;
19812;SDS011;10066;48.108;11.448;2022-08-19T09:54:31;15.13;;;12.67;;
19812;SDS011;10066;48.108;11.448;2022-08-19T09:56:58;14.60;;;12.63;;
19812;SDS011;10066;48.108;11.448;2022-08-19T09:59:28;14.10;;;12.60;;
19812;SDS011;10066;48.108;11.448;2022-08-19T10:01:55;13.93;;;11.17;;
19812;SDS011;10066;48.108;11.448;2022-08-19T10:04:22;12.07;;;10.77;;
19812;SDS011;10066;48.108;11.448;2022-08-19T10:07:10;10.13;;;9.13;;
19812;SDS011;10066;48.108;11.448;2022-08-19T10:09:37;11.53;;;9.93;;
19812;SDS011;10066;48.108;11.448;2022-08-19T10:12:06;12.33;;;9.77;;
19812;SDS011;10066;48.108;11.448;2022-08-19T10:14:35;10.30;;;9.20;;
19812;SDS011;10066;48.108;11.448;2022-08-19T10:17:04;10.07;;;9.07;;
19812;SDS011;10066;48.108;11.448;2022-08-19T10:19:31;10.20;;;9.17;;
19812;SDS011;10066;48.108;11.448;2022-08-19T10:22:02;10.10;;;9.00;;
19812;SDS011;10066;48.108;11.448;2022-08-19T10:24:30;9.97;;;8.97;;
19812;SDS011;10066;48.108;11.448;2022-08-19T10:26:59;9.90;;;8.90;;
19812;SDS011;10066;48.108;11.448;2022-08-19T10:29:28;11.07;;;8.60;;
19812;SDS011;10066;48.108;11.448;2022-08-19T10:31:59;12.43;;;8.93;;
19812;SDS011;10066;48.108;11.448;2022-08-19T10:34:27;10.70;;;8.40;;
19812;SDS011;10066;48.108;11.448;2022-08-19T10:36:56;9.80;;;8.80;;
19812;SDS011;10066;48.108;11.448;2022-08-19T10:39:25;10.70;;;9.57;;
19812;SDS011;10066;48.108;11.448;2022-08-19T10:41:54;9.67;;;8.63;;
19812;SDS011;10066;48.108;11.448;2022-08-19T10:44:22;9.77;;;8.77;;
19812;SDS011;10066;48.108;11.448;2022-08-19T10:46:49;9.57;;;8.40;;
19812;SDS011;10066;48.108;11.448;2022-08-19T10:49:18;8.87;;;7.97;;
19812;SDS011;10066;48.108;11.448;2022-08-19T10:51:45;8.03;;;7.23;;
19812;SDS011;10066;48.108;11.448;2022-08-19T10:54:30;9.83;;;7.93;;
19812;SDS011;10066;48.108;11.448;2022-08-19T10:57:13;9.13;;;8.17;;
19812;SDS011;10066;48.108;11.448;2022-08-19T10:59:40;8.40;;;7.50;;
19812;SDS011;10066;48.108;11.448;2022-08-19T11:02:08;8.90;;;8.00;;
19812;SDS011;10066;48.108;11.448;2022-08-19T11:04:38;8.43;;;7.47;;
19812;SDS011;10066;48.108;11.448;2022-08-19T11:07:06;7.93;;;7.13;;
19812;SDS011;10066;48.108;11.448;2022-08-19T11:09:37;9.47;;;8.03;;
19812;SDS011;10066;48.108;11.448;2022-08-19T11:12:06;9.43;;;8.53;;
19812;SDS011;10066;48.108;11.448;2022-08-19T11:14:34;10.23;;;8.53;;
19812;SDS011;10066;48.108;11.448;2022-08-19T11:17:02;8.93;;;8.03;;
19812;SDS011;10066;48.108;11.448;2022-08-19T11:19:30;9.07;;;8.13;;
19812;SDS011;10066;48.108;11.448;2022-08-19T11:22:00;9.43;;;8.00;;
19812;SDS011;10066;48.108;11.448;2022-08-19T11:24:28;9.03;;;7.90;;
19812;SDS011;10066;48.108;11.448;2022-08-19T11:27:00;8.67;;;7.87;;
19812;SDS011;10066;48.108;11.448;2022-08-19T11:29:29;7.90;;;7.03;;
19812;SDS011;10066;48.108;11.448;2022-08-19T11:31:57;8.10;;;7.30;;
19812;SDS011;10066;48.108;11.448;2022-08-19T11:34:27;8.80;;;6.57;;
19812;SDS011;10066;48.108;11.448;2022-08-19T11:36:54;7.67;;;6.87;;
19812;SDS011;10066;48.108;11.448;2022-08-19T11:39:26;7.20;;;6.50;;
19812;SDS011;10066;48.108;11.448;2022-08-19T11:41:55;6.40;;;5.80;;
19812;SDS011;10066;48.108;11.448;2022-08-19T11:44:22;7.47;;;6.67;;
19812;SDS011;10066;48.108;11.448;2022-08-19T11:46:49;8.43;;;7.63;;
19812;SDS011;10066;48.108;11.448;2022-08-19T11:49:18;8.47;;;6.83;;
19812;SDS011;10066;48.108;11.448;2022-08-19T11:51:46;8.53;;;7.63;;
19812;SDS011;10066;48.108;11.448;2022-08-19T11:54:15;8.17;;;7.37;;
19812;SDS011;10066;48.108;11.448;2022-08-19T11:56:44;7.30;;;6.50;;
19812;SDS011;10066;48.108;11.448;2022-08-19T11:59:14;6.53;;;5.63;;
19812;SDS011;10066;48.108;11.448;2022-08-19T12:01:41;5.73;;;5.23;;
19812;SDS011;10066;48.108;11.448;2022-08-19T12:04:09;7.30;;;4.93;;
19812;SDS011;10066;48.108;11.448;2022-08-19T12:06:37;4.37;;;3.97;;
19812;SDS011;10066;48.108;11.448;2022-08-19T12:09:06;4.20;;;3.80;;
19812;SDS011;10066;48.108;11.448;2022-08-19T12:11:35;4.27;;;3.87;;
19812;SDS011;10066;48.108;11.448;2022-08-19T12:14:05;5.43;;;3.90;;
19812;SDS011;10066;48.108;11.448;2022-08-19T12:16:32;2.97;;;2.67;;
19812;SDS011;10066;48.108;11.448;2022-08-19T12:19:00;3.10;;;2.80;;
19812;SDS011;10066;48.108;11.448;2022-08-19T12:21:30;2.67;;;2.47;;
19812;SDS011;10066;48.108;11.448;2022-08-19T12:24:00;2.30;;;2.10;;
19812;SDS011;10066;48.108;11.448;2022-08-19T12:26:29;1.80;;;1.70;;
19812;SDS011;10066;48.108;11.448;2022-08-19T12:28:58;1.60;;;1.50;;
19812;SDS011;10066;48.108;11.448;2022-08-19T12:31:27;1.53;;;1.40;;
19812;SDS011;10066;48.108;11.448;2022-08-19T12:33:54;1.40;;;1.30;;
19812;SDS011;10066;48.108;11.448;2022-08-19T12:36:22;1.40;;;1.30;;
19812;SDS011;10066;48.108;11.448;2022-08-19T12:38:49;1.43;;;1.33;;
19812;SDS011;10066;48.108;11.448;2022-08-19T12:41:18;1.17;;;0.90;;
19812;SDS011;10066;48.108;11.448;2022-08-19T12:43:47;2.10;;;1.00;;
19812;SDS011;10066;48.108;11.448;2022-08-19T12:46:16;3.20;;;0.90;;
19812;SDS011;10066;48.108;11.448;2022-08-19T12:48:45;1.20;;;1.10;;
19812;SDS011;10066;48.108;11.448;2022-08-19T12:51:14;1.00;;;0.90;;
19812;SDS011;10066;48.108;11.448;2022-08-19T12:53:44;1.30;;;0.80;;
19812;SDS011;10066;48.108;11.448;2022-08-19T12:56:11;1.20;;;0.70;;
19812;SDS011;10066;48.108;11.448;2022-08-19T12:58:40;1.13;;;0.90;;
19812;SDS011;10066;48.108;11.448;2022-08-19T13:01:08;1.37;;;1.10;;
19812;SDS011;10066;48.108;11.448;2022-08-19T13:03:36;1.47;;;1.10;;
19812;SDS011;10066;48.108;11.448;2022-08-19T13:06:05;1.30;;;1.00;;
19812;SDS011;10066;48.108;11.448;2022-08-19T13:08:33;1.10;;;1.00;;
19812;SDS011;10066;48.108;11.448;2022-08-19T13:11:08;0.90;;;0.80;;
19812;SDS011;10066;48.108;11.448;2022-08-19T13:13:38;1.00;;;0.90;;
19812;SDS011;10066;48.108;11.448;2022-08-19T13:16:07;1.00;;;0.90;;
19812;SDS011;10066;48.108;11.448;2022-08-19T13:18:35;1.33;;;1.00;;
19812;SDS011;10066;48.108;11.448;2022-08-19T13:21:05;1.13;;;1.00;;
19812;SDS011;10066;48.108;11.448;2022-08-19T13:23:33;1.20;;;1.10;;
19812;SDS011;10066;48.108;11.448;2022-08-19T13:26:03;2.00;;;1.23;;
19812;SDS011;10066;48.108;11.448;2022-08-19T13:28:32;1.03;;;0.93;;
19812;SDS011;10066;48.108;11.448;2022-08-19T13:31:14;1.30;;;1.10;;
19812;SDS011;10066;48.108;11.448;2022-08-19T13:33:59;1.50;;;1.40;;
19812;SDS011;10066;48.108;11.448;2022-08-19T13:36:28;0.90;;;0.90;;
19812;SDS011;10066;48.108;11.448;2022-08-19T13:38:55;3.10;;;1.33;;
19812;SDS011;10066;48.108;11.448;2022-08-19T13:41:22;1.20;;;1.07;;
19812;SDS011;10066;48.108;11.448;2022-08-19T13:43:50;1.37;;;1.27;;
19812;SDS011;10066;48.108;11.448;2022-08-19T13:46:17;0.90;;;0.80;;
19812;SDS011;10066;48.108;11.448;2022-08-19T13:48:45;1.37;;;1.20;;
19812;SDS011;10066;48.108;11.448;2022-08-19T13:51:13;1.20;;;1.10;;
19812;SDS011;10066;48.108;11.448;2022-08-19T13:53:42;1.30;;;1.20;;
19812;SDS011;10066;48.108;11.448;2022-08-19T13:56:13;1.50;;;1.40;;
19812;SDS011;10066;48.108;11.448;2022-08-19T13:58:44;3.27;;;0.80;;
19812;SDS011;10066;48.108;11.448;2022-08-19T14:01:11;2.60;;;1.30;;
19812;SDS011;10066;48.108;11.448;2022-08-19T14:03:38;1.60;;;1.50;;
19812;SDS011;10066;48.108;11.448;2022-08-19T14:06:05;1.30;;;1.17;;
19812;SDS011;10066;48.108;11.448;2022-08-19T14:08:33;1.43;;;1.33;;
19812;SDS011;10066;48.108;11.448;2022-08-19T14:11:05;1.50;;;1.40;;
19812;SDS011;10066;48.108;11.448;2022-08-19T14:13:33;1.40;;;1.30;;
19812;SDS011;10066;48.108;11.448;2022-08-19T14:16:01;2.23;;;1.60;;
19812;SDS011;10066;48.108;11.448;2022-08-19T14:18:33;3.10;;;1.40;;
19812;SDS011;10066;48.108;11.448;2022-08-19T14:21:01;3.77;;;1.67;;
19812;SDS011;10066;48.108;11.448;2022-08-19T14:23:29;1.90;;;1.63;;
19812;SDS011;10066;48.108;11.448;2022-08-19T14:26:02;2.20;;;2.00;;
19812;SDS011;10066;48.108;11.448;2022-08-19T14:28:31;2.00;;;1.90;;
19812;SDS011;10066;48.108;11.448;2022-08-19T14:30:58;2.07;;;1.80;;
19812;SDS011;10066;48.108;11.448;2022-08-19T14:33:25;2.70;;;2.03;;
19812;SDS011;10066;48.108;11.448;2022-08-19T14:35:52;2.20;;;2.00;;
19812;SDS011;10066;48.108;11.448;2022-08-19T14:38:20;2.13;;;1.97;;
19812;SDS011;10066;48.108;11.448;2022-08-19T14:40:47;2.70;;;2.23;;